메인 페이지
METAR-TAF:

METAR-TAF

공항 :

킹 압둘아지즈 국제공항

지다, 사우디아라비아

위도: 21-42N, 경도: 039-11E, 고도: 15m

현재 날씨관측

예보는 49분 전, 09:00시(UTC)에 발표되었습니다.
7kt
온도 38°C
습도 35%
기압 1009 hPa
시정 10km 이상
1500m 미만 상공 구름 및 적란운 없음

METAR: OEJN 150900Z 26007KT CAVOK 38/20 Q1009 NOSIG

시각: 12:49 (09:49 UTC)

예보

예보는 4 시간 49분 전, 05:00시(UTC)에 발표되었습니다.
예보 대상 시간: 15일 06시부터 16일 12시까지 (UTC)
14kt
시정 10km 이상
1500m 미만 상공 구름 및 적란운 없음
전환 중
15일 18시부터 15일 20시까지 (UTC)
8kt

TAF: OEJN 150500Z 1506/1612 28014KT CAVOK BECMG 1518/1520 01008KT

4,000개 이상의 공항 관측 자료 및 예보 (METAR 및 TAF 보고).

지도상에서 검색 가능한 기상관측소가 노란 점과 빨간 점으로 표시되어 있습니다.

기상관측소 명을 보려면 표시 위로 마우스를 이동하세요.

날씨 관측과 예보를 보려면 클릭하세요.

지도 변경 : 확대하려면 엑스 표시가 있는 녹색 버튼, 축소하려면 빼기 표시가 있는 녹색 버튼, 다음 페이지의 지도를 보려면 녹색 화살표를 클릭하세요.


METAR-TAF: